Time;durP1;ratioP1;P1;durP2;ratioP2;P2;SDS_P1;SDS_P2;PMS_P1;PMS_P2;Temp;Humidity;BMP_temperature;BMP_pressure;BME280_temperature;BME280_humidity;BME280_pressure;Samples;Min_cycle;Max_cycle;Signal;HPM_P1;HPM_P2
2023/03/30 00:01:00;;;;;;;12.43;1.70;;;12.70;99.90;;;;;;5052337;28;20021;-65
2023/03/30 00:03:27;;;;;;;12.68;2.42;;;12.60;99.90;;;;;;5049342;28;20043;-71
2023/03/30 00:05:57;;;;;;;15.20;1.95;;;12.70;99.90;;;;;;5050609;28;20058;-70
2023/03/30 00:08:28;;;;;;;9.32;1.80;;;12.70;99.90;;;;;;5050867;28;20158;-70
2023/03/30 00:11:02;;;;;;;10.90;1.88;;;12.80;99.90;;;;;;5050859;28;20029;-70
2023/03/30 00:13:29;;;;;;;10.85;1.73;;;12.80;99.90;;;;;;5050761;28;20037;-72
2023/03/30 00:15:55;;;;;;;13.35;1.92;;;12.70;99.90;;;;;;5050996;28;20036;-70
2023/03/30 00:18:23;;;;;;;15.73;2.95;;;12.60;99.90;;;;;;5049727;28;20041;-69
2023/03/30 00:20:51;;;;;;;13.88;1.98;;;12.60;99.90;;;;;;5050628;28;20506;-69
2023/03/30 00:23:18;;;;;;;16.90;3.00;;;12.60;99.90;;;;;;5050538;28;20056;-70
2023/03/30 00:25:45;;;;;;;8.80;2.13;;;12.50;99.90;;;;;;5050929;28;20029;-70
2023/03/30 00:28:14;;;;;;;16.70;2.10;;;12.50;99.90;;;;;;5051142;28;20445;-71
2023/03/30 00:30:40;;;;;;;10.65;1.80;;;12.60;99.90;;;;;;5049407;28;20469;-70
2023/03/30 00:33:07;;;;;;;13.35;2.17;;;12.60;99.90;;;;;;5050488;28;20044;-70
2023/03/30 00:35:35;;;;;;;9.43;1.90;;;12.50;99.90;;;;;;5050643;28;20384;-70
2023/03/30 00:38:02;;;;;;;8.45;1.63;;;12.50;99.90;;;;;;5049021;28;20031;-70
2023/03/30 00:40:30;;;;;;;13.30;1.95;;;12.60;99.90;;;;;;5050946;28;20029;-69
2023/03/30 00:43:05;;;;;;;12.80;2.45;;;12.60;99.90;;;;;;5064492;28;20127;-70
2023/03/30 00:45:35;;;;;;;15.40;2.28;;;12.70;99.90;;;;;;5049147;28;20372;-70
2023/03/30 00:48:28;;;;;;;13.75;2.20;;;12.70;99.90;;;;;;5050342;28;20025;-70
2023/03/30 00:50:55;;;;;;;11.73;1.52;;;12.70;99.90;;;;;;5050648;28;20484;-70
2023/03/30 00:53:40;;;;;;;13.55;2.10;;;12.70;99.90;;;;;;5048798;28;20502;-70
2023/03/30 00:56:09;;;;;;;11.80;1.60;;;12.70;99.90;;;;;;5050258;28;20032;-71
2023/03/30 00:58:38;;;;;;;14.93;1.90;;;12.70;99.90;;;;;;5050276;28;20428;-71
2023/03/30 01:01:09;;;;;;;13.85;2.10;;;12.70;99.90;;;;;;5050271;28;20108;-70
2023/03/30 01:03:44;;;;;;;20.15;1.98;;;12.60;99.90;;;;;;5050359;28;20334;-70
2023/03/30 01:06:11;;;;;;;11.38;1.80;;;12.60;99.90;;;;;;5046408;28;20060;-69
2023/03/30 01:08:39;;;;;;;16.88;1.98;;;12.70;99.90;;;;;;5050037;28;20022;-69
2023/03/30 01:11:07;;;;;;;11.73;1.85;;;12.60;99.90;;;;;;5050212;28;20484;-71
2023/03/30 01:13:37;;;;;;;10.43;1.75;;;12.70;99.90;;;;;;5052184;28;20033;-71
2023/03/30 01:16:32;;;;;;;12.90;2.15;;;12.70;99.90;;;;;;5054224;28;20044;-69
2023/03/30 01:19:43;;;;;;;15.30;2.67;;;12.60;99.90;;;;;;5054137;28;20084;-70
2023/03/30 01:22:48;;;;;;;15.77;2.03;;;12.50;99.90;;;;;;5052333;28;20025;-70
2023/03/30 01:26:08;;;;;;;17.75;2.17;;;12.50;99.90;;;;;;5053548;28;20571;-70
2023/03/30 01:28:56;;;;;;;12.38;2.30;;;12.50;99.90;;;;;;4992406;28;20034;-70
2023/03/30 01:31:40;;;;;;;16.98;2.40;;;12.60;99.90;;;;;;4992062;28;20494;-69
2023/03/30 01:34:25;;;;;;;14.63;2.03;;;12.60;99.90;;;;;;4992175;28;20042;-70
2023/03/30 01:37:12;;;;;;;13.02;1.80;;;12.50;99.90;;;;;;4991664;28;20069;-69
2023/03/30 01:40:23;;;;;;;10.93;2.13;;;12.60;99.90;;;;;;4992352;28;20109;-69
2023/03/30 01:43:28;;;;;;;12.65;2.08;;;12.60;99.90;;;;;;4974826;28;20509;-70
2023/03/30 01:46:12;;;;;;;9.25;1.63;;;12.60;99.90;;;;;;4990967;28;20075;-69
2023/03/30 01:48:44;;;;;;;10.88;1.95;;;12.50;99.90;;;;;;4991894;28;20023;-70
2023/03/30 01:51:19;;;;;;;15.98;2.42;;;12.50;99.90;;;;;;4975181;28;20238;-66
2023/03/30 01:54:00;;;;;;;8.90;1.60;;;12.60;99.90;;;;;;4980329;28;20061;-69
2023/03/30 01:56:50;;;;;;;16.30;2.20;;;12.60;99.90;;;;;;4980241;28;20058;-70
2023/03/30 01:59:31;;;;;;;14.02;2.15;;;12.60;99.90;;;;;;4977722;28;20509;-65
2023/03/30 02:02:02;;;;;;;13.60;2.17;;;12.30;99.90;;;;;;4997824;28;20084;-66
2023/03/30 02:04:52;;;;;;;21.00;2.83;;;12.40;99.90;;;;;;5040817;28;20033;-65
2023/03/30 02:07:41;;;;;;;15.05;2.03;;;12.50;99.90;;;;;;5043698;28;20056;-70
2023/03/30 02:10:09;;;;;;;30.05;3.15;;;12.60;99.90;;;;;;5042605;28;20040;-70
2023/03/30 02:12:37;;;;;;;8.55;1.67;;;12.60;99.90;;;;;;5042509;28;20032;-70
2023/03/30 02:15:08;;;;;;;12.63;1.73;;;12.60;99.90;;;;;;5040240;28;20070;-70
2023/03/30 02:17:56;;;;;;;14.40;1.80;;;12.60;99.90;;;;;;5054739;28;20017;-71
2023/03/30 02:20:23;;;;;;;11.57;1.60;;;12.50;99.90;;;;;;5053004;28;20032;-71
2023/03/30 02:22:49;;;;;;;14.00;2.05;;;12.50;99.90;;;;;;5052391;28;20032;-70
2023/03/30 02:25:16;;;;;;;11.38;1.80;;;12.40;99.90;;;;;;5052681;28;20484;-70
2023/03/30 02:28:02;;;;;;;16.17;2.35;;;12.40;99.90;;;;;;5052080;28;20086;-72
2023/03/30 02:30:38;;;;;;;17.95;2.85;;;12.20;99.90;;;;;;5052217;28;20021;-70
2023/03/30 02:33:31;;;;;;;15.35;2.00;;;12.20;99.90;;;;;;5052157;28;20172;-69
2023/03/30 02:36:19;;;;;;;16.88;3.70;;;12.20;99.90;;;;;;5052519;28;20070;-71
2023/03/30 02:38:59;;;;;;;7.43;1.63;;;12.20;99.90;;;;;;5052051;28;20163;-69
2023/03/30 02:41:47;;;;;;;13.63;2.53;;;12.20;99.90;;;;;;5052263;28;20025;-71
2023/03/30 02:44:22;;;;;;;9.00;1.77;;;12.20;99.90;;;;;;5052584;28;20106;-69
2023/03/30 02:46:57;;;;;;;16.58;3.03;;;12.20;99.90;;;;;;5050959;28;20227;-70
2023/03/30 02:49:46;;;;;;;13.80;2.38;;;12.20;99.90;;;;;;5050326;28;20033;-70
2023/03/30 02:52:49;;;;;;;12.13;2.08;;;12.10;99.90;;;;;;5051930;28;20025;-70
2023/03/30 02:55:40;;;;;;;14.23;2.42;;;12.10;99.90;;;;;;5051391;28;20366;-70
2023/03/30 02:58:38;;;;;;;12.30;2.72;;;12.10;99.90;;;;;;5052209;28;20437;-70
2023/03/30 03:01:35;;;;;;;7.13;1.75;;;12.10;99.90;;;;;;5051679;28;20117;-71
2023/03/30 03:04:02;;;;;;;;;;;12.00;99.90;;;;;;5047432;28;20335;-71
2023/03/30 03:06:28;;;;;;;15.68;2.13;;;12.00;99.90;;;;;;5049456;28;19916;-70
2023/03/30 03:08:56;;;;;;;17.17;2.15;;;12.00;99.90;;;;;;5051659;28;20433;-70
2023/03/30 03:11:23;;;;;;;14.07;2.22;;;12.00;99.90;;;;;;5052175;28;20029;-70
2023/03/30 03:13:49;;;;;;;;;;;11.90;99.90;;;;;;5053036;28;20458;-69
2023/03/30 03:16:17;;;;;;;12.18;2.15;;;11.90;99.90;;;;;;5052195;28;19927;-69
2023/03/30 03:18:43;;;;;;;16.65;2.38;;;11.90;99.90;;;;;;5052164;28;20029;-71
2023/03/30 03:21:12;;;;;;;15.07;2.50;;;11.90;99.90;;;;;;5052192;28;20028;-70
2023/03/30 03:23:43;;;;;;;16.08;2.13;;;11.90;99.90;;;;;;5052522;28;20079;-70
2023/03/30 03:26:10;;;;;;;11.23;1.83;;;11.90;99.90;;;;;;5051862;28;20037;-69
2023/03/30 03:28:37;;;;;;;10.88;1.70;;;11.90;99.90;;;;;;5052629;28;20052;-71
2023/03/30 03:31:04;;;;;;;14.65;1.88;;;11.80;99.90;;;;;;5053149;28;20029;-70
2023/03/30 03:33:31;;;;;;;11.20;2.35;;;11.80;99.90;;;;;;5067824;28;20031;-70
2023/03/30 03:35:59;;;;;;;15.05;2.63;;;11.90;99.90;;;;;;5052154;28;20025;-71
2023/03/30 03:38:27;;;;;;;14.13;2.25;;;11.90;99.90;;;;;;5052441;28;20087;-70
2023/03/30 03:41:00;;;;;;;10.35;1.90;;;11.90;99.90;;;;;;5051080;28;20052;-69
2023/03/30 03:43:27;;;;;;;11.13;2.17;;;11.80;99.90;;;;;;5052614;28;20063;-71
2023/03/30 03:46:02;;;;;;;11.10;2.10;;;11.70;99.90;;;;;;5052241;28;20465;-70
2023/03/30 03:48:28;;;;;;;19.08;2.20;;;11.70;99.90;;;;;;5052799;28;20060;-70
2023/03/30 03:50:57;;;;;;;19.98;2.22;;;11.70;99.90;;;;;;5052466;28;20021;-70
2023/03/30 03:53:26;;;;;;;17.75;2.78;;;11.70;99.90;;;;;;5052134;28;20346;-66
2023/03/30 03:55:57;;;;;;;12.07;2.25;;;11.80;99.90;;;;;;5052201;28;20063;-70
2023/03/30 03:58:27;;;;;;;15.20;2.05;;;11.80;99.90;;;;;;5052651;28;20077;-70
2023/03/30 04:01:02;;;;;;;15.63;2.30;;;11.90;99.90;;;;;;5052517;28;20124;-71
2023/03/30 04:03:31;;;;;;;18.58;2.40;;;12.00;99.90;;;;;;5052404;28;20029;-71
2023/03/30 04:06:03;;;;;;;24.50;3.53;;;12.10;99.90;;;;;;5051866;28;20106;-68
2023/03/30 04:08:29;;;;;;;15.10;2.17;;;12.00;99.90;;;;;;5050851;28;20059;-71
2023/03/30 04:11:02;;;;;;;;;;;12.00;99.90;;;;;;5052166;28;20037;-71
2023/03/30 04:13:28;;;;;;;20.50;2.58;;;12.00;99.90;;;;;;5052375;28;19909;-71
2023/03/30 04:15:54;;;;;;;15.90;2.77;;;12.00;99.90;;;;;;5050662;28;20108;-72
2023/03/30 04:18:20;;;;;;;23.23;2.53;;;12.10;99.90;;;;;;5052641;28;20021;-71
2023/03/30 04:20:48;;;;;;;26.03;2.63;;;12.00;99.90;;;;;;5051686;28;20469;-71
2023/03/30 04:23:20;;;;;;;12.82;2.20;;;12.00;99.90;;;;;;5052142;28;20059;-70
2023/03/30 04:25:50;;;;;;;14.63;2.55;;;12.00;99.90;;;;;;5052782;28;20025;-71
2023/03/30 04:28:20;;;;;;;17.55;2.50;;;12.00;99.90;;;;;;5053064;28;20029;-70
2023/03/30 04:30:49;;;;;;;17.27;2.40;;;12.00;99.90;;;;;;5052319;28;20021;-71
2023/03/30 04:33:18;;;;;;;14.75;2.13;;;12.10;99.90;;;;;;5052109;28;20471;-72
2023/03/30 04:35:45;;;;;;;11.23;2.30;;;12.00;99.90;;;;;;5052117;28;20025;-71
2023/03/30 04:38:12;;;;;;;20.25;2.70;;;11.90;99.90;;;;;;5032272;28;20036;-70
2023/03/30 04:40:38;;;;;;;;;;;11.90;99.90;;;;;;5032572;28;20032;-71
2023/03/30 04:43:04;;;;;;;12.70;2.83;;;11.80;99.90;;;;;;5031215;28;19905;-72
2023/03/30 04:45:32;;;;;;;12.52;2.53;;;11.80;99.90;;;;;;5032434;28;20030;-70
2023/03/30 04:47:59;;;;;;;14.68;2.10;;;11.70;99.90;;;;;;5032771;28;20509;-72
2023/03/30 04:50:25;;;;;;;13.65;2.88;;;11.70;99.90;;;;;;5036153;28;20071;-71
2023/03/30 04:52:51;;;;;;;15.80;2.55;;;11.70;99.90;;;;;;5034709;28;20481;-69
2023/03/30 04:55:17;;;;;;;15.95;2.58;;;11.70;99.90;;;;;;5036046;28;20467;-71
2023/03/30 04:57:43;;;;;;;18.27;2.60;;;11.70;99.90;;;;;;5036043;28;20183;-69
2023/03/30 05:00:12;;;;;;;20.10;2.70;;;11.80;99.90;;;;;;5036104;28;20045;-71
2023/03/30 05:02:39;;;;;;;17.77;2.70;;;11.80;99.90;;;;;;5035851;28;20369;-70
2023/03/30 05:05:06;;;;;;;12.85;2.45;;;11.70;99.90;;;;;;5035398;28;20338;-70
2023/03/30 05:07:32;;;;;;;30.90;3.10;;;11.70;99.90;;;;;;5047591;28;20037;-68
2023/03/30 05:09:58;;;;;;;15.65;2.63;;;11.60;99.90;;;;;;5053839;28;20040;-69
2023/03/30 05:12:24;;;;;;;12.45;2.40;;;11.50;99.90;;;;;;5044390;28;20036;-69
2023/03/30 05:14:50;;;;;;;12.45;2.22;;;11.40;99.90;;;;;;5049794;28;20032;-70
2023/03/30 05:17:16;;;;;;;14.60;2.95;;;11.50;99.90;;;;;;5038323;28;20025;-70
2023/03/30 05:19:42;;;;;;;18.25;3.08;;;11.60;99.90;;;;;;5035682;28;20444;-72
2023/03/30 05:22:08;;;;;;;16.77;2.50;;;11.70;99.90;;;;;;5035698;28;20083;-73
2023/03/30 05:24:34;;;;;;;21.07;3.47;;;11.70;99.90;;;;;;5043030;28;20437;-72
2023/03/30 05:27:01;;;;;;;18.03;3.97;;;11.80;99.90;;;;;;5056116;28;20555;-72
2023/03/30 05:29:28;;;;;;;21.55;6.90;;;11.90;99.90;;;;;;5053594;28;20021;-73
2023/03/30 05:31:54;;;;;;;21.63;7.00;;;11.90;99.90;;;;;;5048487;28;20061;-73
2023/03/30 05:34:26;;;;;;;21.42;8.00;;;12.00;99.90;;;;;;5035800;28;20026;-74
2023/03/30 05:36:52;;;;;;;20.15;8.27;;;12.20;99.90;;;;;;5044467;28;20025;-73
2023/03/30 05:39:22;;;;;;;16.00;7.55;;;12.20;99.90;;;;;;5035066;28;20029;-72
2023/03/30 05:41:49;;;;;;;24.25;7.93;;;12.30;99.90;;;;;;5034572;28;20029;-75
2023/03/30 05:44:17;;;;;;;20.52;4.72;;;12.70;99.90;;;;;;5035099;28;20029;-75
2023/03/30 05:46:43;;;;;;;17.08;5.00;;;13.00;99.90;;;;;;5034283;28;20041;-74
2023/03/30 05:49:11;;;;;;;21.45;4.78;;;13.10;99.90;;;;;;5034280;28;20026;-75
2023/03/30 05:51:37;;;;;;;17.30;4.18;;;13.40;99.90;;;;;;5034313;28;20037;-74
2023/03/30 05:54:04;;;;;;;16.73;3.80;;;13.50;99.90;;;;;;5034411;28;20104;-75
2023/03/30 05:56:30;;;;;;;15.10;3.08;;;13.70;99.90;;;;;;5033989;28;20025;-75
2023/03/30 05:58:56;;;;;;;11.45;2.80;;;13.90;99.90;;;;;;5032164;28;20025;-73
2023/03/30 06:01:23;;;;;;;14.97;2.67;;;14.00;99.90;;;;;;5033783;28;20040;-74
2023/03/30 06:03:51;;;;;;;21.40;3.28;;;14.70;99.90;;;;;;5033817;28;20457;-74
2023/03/30 06:06:18;;;;;;;18.80;3.08;;;15.30;99.90;;;;;;5033586;28;20569;-74
2023/03/30 06:08:50;;;;;;;17.63;2.60;;;15.20;99.90;;;;;;5062827;22;20081;-75
2023/03/30 06:11:20;;;;;;;14.38;2.65;;;15.70;99.90;;;;;;5053997;28;20554;-76
2023/03/30 06:13:46;;;;;;;21.30;2.50;;;15.60;99.90;;;;;;5053231;28;20104;-76
2023/03/30 06:16:14;;;;;;;15.50;2.93;;;15.10;99.90;;;;;;5053772;28;20025;-74
2023/03/30 06:18:42;;;;;;;17.90;3.33;;;14.50;99.90;;;;;;5036038;28;20271;-75
2023/03/30 06:21:10;;;;;;;18.63;2.92;;;14.20;99.90;;;;;;5054247;28;20036;-73
2023/03/30 06:23:36;;;;;;;20.33;3.15;;;14.40;99.90;;;;;;5053545;28;20104;-73
2023/03/30 06:26:06;;;;;;;17.40;3.45;;;14.90;99.90;;;;;;5053686;28;20055;-75
2023/03/30 06:28:33;;;;;;;15.40;2.75;;;15.60;99.90;;;;;;5054102;28;20025;-74
2023/03/30 06:31:01;;;;;;;23.13;3.45;;;16.50;99.90;;;;;;5054015;28;20103;-74
2023/03/30 06:33:29;;;;;;;12.15;2.70;;;18.10;99.90;;;;;;5053854;28;20055;-75
2023/03/30 06:36:14;;;;;;;19.95;3.08;;;18.50;99.90;;;;;;5035937;28;20500;-77
2023/03/30 06:38:42;;;;;;;11.43;2.50;;;18.20;99.90;;;;;;5037013;28;20055;-76
2023/03/30 06:41:10;;;;;;;20.10;3.10;;;19.40;99.90;;;;;;5053648;28;20029;-74
2023/03/30 06:43:37;;;;;;;15.65;3.17;;;19.80;99.90;;;;;;5035964;28;20481;-75
2023/03/30 06:46:06;;;;;;;24.52;3.10;;;20.50;99.90;;;;;;5054177;28;20080;-77
2023/03/30 06:48:33;;;;;;;13.18;3.22;;;21.50;99.90;;;;;;5053832;28;20051;-80
2023/03/30 06:51:02;;;;;;;19.33;3.47;;;20.90;99.90;;;;;;5054671;28;20021;-75
2023/03/30 06:53:28;;;;;;;17.13;2.88;;;21.30;99.90;;;;;;5054076;28;20021;-77
2023/03/30 06:55:57;;;;;;;16.98;3.30;;;22.00;99.90;;;;;;5054351;28;20477;-85
2023/03/30 06:58:26;;;;;;;16.77;3.10;;;21.30;99.90;;;;;;5054949;28;20025;-81
2023/03/30 07:00:53;;;;;;;13.70;3.50;;;21.40;99.90;;;;;;5054242;28;20393;-79
2023/03/30 07:03:19;;;;;;;13.68;2.97;;;20.80;99.90;;;;;;5053771;28;20492;-81
2023/03/30 07:05:50;;;;;;;18.50;2.85;;;20.60;99.90;;;;;;5053785;28;20072;-80
2023/03/30 07:08:20;;;;;;;17.65;2.58;;;21.70;99.90;;;;;;5053777;28;20056;-80
2023/03/30 07:10:47;;;;;;;13.23;2.30;;;22.30;99.90;;;;;;5053101;28;20132;-80
2023/03/30 07:13:18;;;;;;;15.82;2.50;;;22.20;99.90;;;;;;5052688;28;20036;-80
2023/03/30 07:15:45;;;;;;;11.40;2.50;;;20.80;99.90;;;;;;5055079;28;20048;-79
2023/03/30 07:18:12;;;;;;;18.40;2.83;;;19.20;99.90;;;;;;5053216;28;20021;-80
2023/03/30 07:20:38;;;;;;;17.55;3.17;;;18.30;99.90;;;;;;5052930;28;20031;-79
2023/03/30 07:23:10;;;;;;;19.17;2.90;;;17.80;99.90;;;;;;5034326;28;20025;-76
2023/03/30 07:25:40;;;;;;;16.45;2.40;;;17.80;99.90;;;;;;5049720;28;20033;-79
2023/03/30 07:28:06;;;;;;;17.48;2.47;;;17.70;99.90;;;;;;5052879;28;20017;-79
2023/03/30 07:30:34;;;;;;;14.38;2.58;;;17.80;99.90;;;;;;5053399;28;20025;-78
2023/03/30 07:33:00;;;;;;;14.30;2.67;;;17.80;99.90;;;;;;5053838;28;20017;-79
2023/03/30 07:35:27;;;;;;;14.05;2.40;;;17.90;99.90;;;;;;5053552;28;20082;-80
2023/03/30 07:37:53;;;;;;;9.88;2.60;;;18.00;99.90;;;;;;5053382;28;20519;-79
2023/03/30 07:40:20;;;;;;;17.83;2.42;;;18.00;99.90;;;;;;5052968;28;20145;-78
2023/03/30 07:42:47;;;;;;;15.85;2.47;;;18.30;99.90;;;;;;5035205;28;20040;-80
2023/03/30 07:45:13;;;;;;;14.70;2.30;;;18.70;99.90;;;;;;5035621;28;20064;-81
2023/03/30 07:47:42;;;;;;;16.30;2.38;;;18.90;99.90;;;;;;5053261;28;20500;-81
2023/03/30 07:50:09;;;;;;;15.93;2.63;;;19.00;99.90;;;;;;5052768;28;20128;-80
2023/03/30 07:52:35;;;;;;;17.13;2.17;;;18.40;99.90;;;;;;5052417;28;20036;-83
2023/03/30 07:55:01;;;;;;;13.82;2.40;;;18.90;99.90;;;;;;5052856;28;20353;-82
2023/03/30 07:57:27;;;;;;;21.23;2.28;;;19.30;99.90;;;;;;5052993;28;20047;-80
2023/03/30 07:59:55;;;;;;;18.30;2.00;;;19.40;99.90;;;;;;5052691;28;20024;-81
2023/03/30 08:02:21;;;;;;;19.67;2.58;;;19.40;99.90;;;;;;5052755;28;20029;-82
2023/03/30 08:04:47;;;;;;;15.50;2.70;;;19.70;99.90;;;;;;5052218;28;20025;-81
2023/03/30 08:07:15;;;;;;;10.15;1.95;;;20.10;99.90;;;;;;5034178;28;20044;-77
2023/03/30 08:09:43;;;;;;;17.55;2.42;;;19.80;99.90;;;;;;5033777;28;20049;-81
2023/03/30 08:12:10;;;;;;;19.83;2.38;;;20.00;99.90;;;;;;5052177;28;20067;-82
2023/03/30 08:14:37;;;;;;;15.75;2.70;;;20.10;99.90;;;;;;5052402;28;20073;-79
2023/03/30 08:17:03;;;;;;;;;;;20.40;99.90;;;;;;5052585;28;20100;-79
2023/03/30 08:19:29;;;;;;;18.15;3.85;;;20.30;99.90;;;;;;5052414;28;19904;-81
2023/03/30 08:21:55;;;;;;;19.38;3.22;;;20.50;99.90;;;;;;5053888;28;20029;-80
2023/03/30 08:24:21;;;;;;;14.20;3.38;;;20.30;99.90;;;;;;5056857;28;20043;-80
2023/03/30 08:26:47;;;;;;;21.13;3.70;;;19.90;99.90;;;;;;5038467;28;20059;-80
2023/03/30 08:29:13;;;;;;;20.33;3.20;;;20.30;99.90;;;;;;5057238;28;20445;-81
2023/03/30 08:31:40;;;;;;;18.13;3.17;;;20.70;99.90;;;;;;5056647;28;20480;-80
2023/03/30 08:34:07;;;;;;;15.40;2.63;;;20.70;99.90;;;;;;5056584;28;20044;-80
2023/03/30 08:36:34;;;;;;;14.95;2.90;;;20.70;99.90;;;;;;5056200;28;20025;-79
2023/03/30 08:39:01;;;;;;;16.85;3.10;;;20.00;99.90;;;;;;5054475;28;20524;-83
2023/03/30 08:41:28;;;;;;;14.85;2.83;;;19.80;99.90;;;;;;5054582;28;20514;-81
2023/03/30 08:44:31;;;;;;;12.10;3.00;;;19.80;99.90;;;;;;5055052;28;20029;-79
2023/03/30 08:47:01;;;;;;;12.93;2.33;;;20.10;99.90;;;;;;5014259;28;20119;-80
2023/03/30 08:49:30;;;;;;;16.98;2.72;;;20.50;99.90;;;;;;5013847;28;20192;-80
2023/03/30 08:51:58;;;;;;;13.10;2.40;;;20.40;99.90;;;;;;4996520;28;20163;-78
2023/03/30 08:54:27;;;;;;;15.75;2.50;;;20.30;99.90;;;;;;5013600;28;20038;-79
2023/03/30 08:57:04;;;;;;;11.90;2.20;;;20.40;99.90;;;;;;4997571;28;20037;-80
2023/03/30 08:59:49;;;;;;;12.85;2.38;;;20.30;99.90;;;;;;5013799;28;20061;-80
2023/03/30 09:02:38;;;;;;;14.80;2.85;;;20.00;99.90;;;;;;5013261;28;20041;-81
2023/03/30 09:05:37;;;;;;;13.15;2.53;;;20.00;99.90;;;;;;5014160;28;20046;-80
2023/03/30 09:08:27;;;;;;;15.02;3.15;;;19.90;99.90;;;;;;4994531;28;20133;-80
2023/03/30 09:11:05;;;;;;;15.52;2.90;;;20.00;99.90;;;;;;4994753;28;20050;-79
2023/03/30 09:13:35;;;;;;;13.32;2.83;;;20.20;99.90;;;;;;4994678;28;20101;-78
2023/03/30 09:16:41;;;;;;;13.02;2.53;;;20.40;99.90;;;;;;4978008;28;20030;-80
2023/03/30 09:19:17;;;;;;;16.20;2.65;;;20.20;99.90;;;;;;4994744;28;20062;-80
2023/03/30 09:21:44;;;;;;;18.05;2.17;;;20.00;99.90;;;;;;4986327;28;20116;-78
2023/03/30 09:24:22;;;;;;;21.85;3.63;;;20.00;99.90;;;;;;5022923;28;20083;-79
2023/03/30 09:27:17;;;;;;;13.02;2.10;;;20.10;99.90;;;;;;5048177;28;20107;-80
2023/03/30 09:29:49;;;;;;;14.18;2.67;;;20.00;99.90;;;;;;5055489;28;20043;-80
2023/03/30 09:32:31;;;;;;;13.40;2.70;;;19.90;99.90;;;;;;5055036;28;20105;-79
2023/03/30 09:35:14;;;;;;;17.30;2.78;;;20.20;99.90;;;;;;5054146;28;20496;-80
2023/03/30 09:37:41;;;;;;;15.73;2.53;;;19.90;99.90;;;;;;5054256;28;20025;-79
2023/03/30 09:40:33;;;;;;;14.60;2.42;;;19.90;99.90;;;;;;5054787;28;20079;-78
2023/03/30 09:43:08;;;;;;;24.70;3.22;;;19.40;99.90;;;;;;5055301;28;20147;-77
2023/03/30 09:45:35;;;;;;;15.38;2.75;;;19.80;99.90;;;;;;5054829;28;20124;-78
2023/03/30 09:48:07;;;;;;;11.98;2.47;;;19.80;99.90;;;;;;5054716;28;20162;-78
2023/03/30 09:50:39;;;;;;;16.50;2.67;;;20.20;99.90;;;;;;5054551;28;20029;-80
2023/03/30 09:53:24;;;;;;;12.27;2.80;;;20.30;99.90;;;;;;5054195;28;20068;-78
2023/03/30 09:56:09;;;;;;;17.20;3.28;;;19.90;99.90;;;;;;5054600;28;20120;-80
2023/03/30 09:58:36;;;;;;;11.25;2.03;;;20.00;99.90;;;;;;5036056;28;20037;-78
2023/03/30 10:01:07;;;;;;;13.65;2.40;;;19.70;99.90;;;;;;5054334;28;20103;-78
2023/03/30 10:03:34;;;;;;;12.40;2.38;;;19.90;99.90;;;;;;5054726;28;20028;-77
2023/03/30 10:06:06;;;;;;;15.25;2.97;;;20.00;99.90;;;;;;5036559;28;20029;-78
2023/03/30 10:08:49;;;;;;;12.25;2.35;;;19.70;99.90;;;;;;5054041;28;20052;-77
2023/03/30 10:11:46;;;;;;;17.50;2.40;;;19.50;99.90;;;;;;5054831;28;20017;-79
2023/03/30 10:14:35;;;;;;;14.48;2.25;;;19.70;99.90;;;;;;5054872;28;20078;-80
2023/03/30 10:17:05;;;;;;;20.70;2.75;;;19.90;99.90;;;;;;5048004;28;20060;-77
2023/03/30 10:19:33;;;;;;;12.75;2.05;;;19.80;99.90;;;;;;5054365;28;20032;-78
2023/03/30 10:22:03;;;;;;;14.65;2.10;;;19.70;99.90;;;;;;5054823;28;20511;-79
2023/03/30 10:24:32;;;;;;;14.50;2.60;;;19.40;99.90;;;;;;5054104;28;20499;-79
2023/03/30 10:27:08;;;;;;;13.60;2.10;;;19.50;99.90;;;;;;5054159;28;20087;-78
2023/03/30 10:29:34;;;;;;;;;;;19.70;99.90;;;;;;5036180;28;20067;-78
2023/03/30 10:32:14;;;;;;;17.65;4.07;;;19.40;99.90;;;;;;5053913;28;19905;-79
2023/03/30 10:34:44;;;;;;;13.18;2.42;;;19.50;99.90;;;;;;5036425;28;20021;-79
2023/03/30 10:37:18;;;;;;;10.48;2.58;;;19.80;99.90;;;;;;5054099;28;20028;-78
2023/03/30 10:39:47;;;;;;;30.67;2.35;;;19.80;99.90;;;;;;5054025;28;20021;-79
2023/03/30 10:42:18;;;;;;;14.48;2.53;;;19.90;99.90;;;;;;5053686;28;20397;-77
2023/03/30 10:44:48;;;;;;;14.45;2.25;;;19.60;99.90;;;;;;5053914;28;20049;-79
2023/03/30 10:47:51;;;;;;;17.23;2.65;;;19.80;99.90;;;;;;5052869;28;20108;-78
2023/03/30 10:50:42;;;;;;;13.18;2.42;;;19.60;99.90;;;;;;5053347;28;20029;-77
2023/03/30 10:53:35;;;;;;;13.00;2.00;;;19.40;99.90;;;;;;5053436;28;20056;-78
2023/03/30 10:56:16;;;;;;;8.70;2.10;;;19.20;99.90;;;;;;5035589;28;20485;-79
2023/03/30 10:59:19;;;;;;;6.70;1.67;;;19.20;99.90;;;;;;5053916;28;20024;-78
2023/03/30 11:01:51;;;;;;;8.57;1.73;;;19.40;99.90;;;;;;5053765;28;20067;-79
2023/03/30 11:04:42;;;;;;;8.80;2.13;;;19.50;99.90;;;;;;5053427;28;20098;-79
2023/03/30 11:07:39;;;;;;;11.23;1.85;;;19.70;99.90;;;;;;5035071;28;20039;-78
2023/03/30 11:10:28;;;;;;;10.93;1.80;;;19.70;99.90;;;;;;5053010;28;20064;-78
2023/03/30 11:13:22;;;;;;;15.82;2.10;;;19.80;99.90;;;;;;5053658;28;20043;-78
2023/03/30 11:16:04;;;;;;;9.85;2.20;;;19.60;99.90;;;;;;5052960;28;20036;-78
2023/03/30 11:18:59;;;;;;;9.65;1.90;;;19.90;99.90;;;;;;5036155;28;20028;-77
2023/03/30 11:21:45;;;;;;;11.63;2.40;;;20.00;99.90;;;;;;5054721;28;20029;-77
2023/03/30 11:24:25;;;;;;;11.63;3.45;;;20.10;99.90;;;;;;5055170;28;20491;-77
2023/03/30 11:27:05;;;;;;;16.02;3.83;;;19.90;99.90;;;;;;5053684;28;20186;-77
2023/03/30 11:29:56;;;;;;;9.45;2.10;;;20.10;99.90;;;;;;5053350;28;20104;-76
2023/03/30 11:32:25;;;;;;;9.30;1.98;;;19.80;99.90;;;;;;5034782;28;20076;-75
2023/03/30 11:35:09;;;;;;;11.55;1.77;;;19.40;99.90;;;;;;5053500;28;20490;-79
2023/03/30 11:37:49;;;;;;;7.95;1.30;;;19.70;99.90;;;;;;5037948;28;20029;-75
2023/03/30 11:40:18;;;;;;;9.93;1.60;;;19.70;99.90;;;;;;5015199;28;20030;-77
2023/03/30 11:42:46;;;;;;;6.25;1.23;;;19.70;99.90;;;;;;5015033;28;20121;-77
2023/03/30 11:45:37;;;;;;;8.20;1.73;;;19.80;99.90;;;;;;5032941;28;20183;-79
2023/03/30 11:48:34;;;;;;;8.57;1.83;;;19.70;99.90;;;;;;5014933;28;20053;-76
2023/03/30 11:51:09;;;;;;;12.25;1.73;;;20.00;99.90;;;;;;5032470;28;20052;-76
2023/03/30 11:54:05;;;;;;;7.72;1.70;;;19.90;99.90;;;;;;5032471;28;20413;-73
2023/03/30 11:56:45;;;;;;;6.80;1.42;;;19.70;99.90;;;;;;5049066;28;20112;-76
2023/03/30 11:59:47;;;;;;;13.05;1.65;;;20.10;99.90;;;;;;5050228;28;20029;-76
2023/03/30 12:02:39;;;;;;;9.18;1.58;;;19.70;99.90;;;;;;5050218;28;20024;-73
2023/03/30 12:05:33;;;;;;;8.45;1.65;;;19.50;99.90;;;;;;5033925;28;20029;-72
2023/03/30 12:08:29;;;;;;;10.20;1.90;;;19.60;99.90;;;;;;5051357;28;20048;-77
2023/03/30 12:11:29;;;;;;;10.07;1.90;;;19.40;99.90;;;;;;5053051;28;20033;-77
2023/03/30 12:13:56;;;;;;;13.75;1.98;;;19.70;99.90;;;;;;5018240;28;20037;-77
2023/03/30 12:16:39;;;;;;;11.77;1.65;;;19.80;99.90;;;;;;5052732;28;20103;-75
2023/03/30 12:19:27;;;;;;;10.45;1.88;;;19.90;99.90;;;;;;5053042;28;20108;-74
2023/03/30 12:22:20;;;;;;;11.15;1.85;;;19.70;99.90;;;;;;5053132;28;20420;-75
2023/03/30 12:25:13;;;;;;;9.68;1.50;;;19.60;99.90;;;;;;5034505;28;20025;-74
2023/03/30 12:28:01;;;;;;;10.98;1.90;;;19.90;99.90;;;;;;5052535;28;20199;-75
2023/03/30 12:30:30;;;;;;;11.32;1.58;;;20.00;99.90;;;;;;5052732;28;20385;-75
2023/03/30 12:33:01;;;;;;;12.45;2.28;;;19.80;99.90;;;;;;5052318;28;20111;-74
2023/03/30 12:35:47;;;;;;;8.35;1.50;;;19.60;99.90;;;;;;5052965;28;20461;-74
2023/03/30 12:38:22;;;;;;;12.57;2.25;;;19.60;99.90;;;;;;5025117;28;20026;-75
2023/03/30 12:40:55;;;;;;;8.60;1.70;;;19.80;99.90;;;;;;5032496;28;20033;-74
2023/03/30 12:43:39;;;;;;;12.43;2.08;;;19.90;99.90;;;;;;5033039;28;20079;-75
2023/03/30 12:46:30;;;;;;;13.57;1.88;;;19.70;99.90;;;;;;5035988;28;20040;-73
2023/03/30 12:49:29;;;;;;;9.38;1.63;;;19.70;99.90;;;;;;5032737;28;20021;-74
2023/03/30 12:52:29;;;;;;;12.27;2.30;;;19.80;99.90;;;;;;5032539;28;20444;-74
2023/03/30 12:55:11;;;;;;;12.60;2.25;;;19.70;99.90;;;;;;5032383;28;20461;-74
2023/03/30 12:58:13;;;;;;;13.40;2.22;;;19.50;99.90;;;;;;5032523;28;20028;-75
2023/03/30 13:01:21;;;;;;;11.32;1.77;;;19.70;99.90;;;;;;5040231;28;20457;-73
2023/03/30 13:03:51;;;;;;;9.95;1.77;;;19.90;99.90;;;;;;5051757;28;20029;-75
2023/03/30 13:06:36;;;;;;;7.38;1.80;;;20.20;99.90;;;;;;5051475;28;20106;-73
2023/03/30 13:09:14;;;;;;;8.93;1.55;;;20.00;99.90;;;;;;5052348;28;20098;-72
2023/03/30 13:12:00;;;;;;;13.27;2.08;;;19.90;99.90;;;;;;5056165;28;20083;-75
2023/03/30 13:14:37;;;;;;;13.52;1.95;;;20.00;99.90;;;;;;5054656;28;20040;-74
2023/03/30 13:17:04;;;;;;;12.55;2.00;;;20.20;99.90;;;;;;5056126;28;20350;-74
2023/03/30 13:19:31;;;;;;;9.18;1.63;;;20.40;99.90;;;;;;5055512;28;20033;-76